Etusivu
METAR-TAF:

METAR-TAF

Lentoasemat :

Ohrid, Makedonia

Leveyspiiri: 41-07N, Pituuspiiri: 020-48E, korkeus merenpinnasta: 760 m

Tämänhetkinen sää

Tämä raportti tehtiin 1 tunti ja 13 minuuttia sitten, kello 18.50 UTC
Tuuli 5 kn idästä/kaakosta
Lämpötila 18°C
Kosteus 64%
Ilmanpaine 1023 hPa
Näkyvyys 10 km tai enemmän
ei pilviä alle 1500 m:ssä eikä cumulonimbus-pilviä

METAR: LWOH 141850Z 11005KT CAVOK 18/11 Q1023

Aika: 22:03 (20:03 UTC)

Sääennuste

Tämä raportti tehtiin 2 tuntia ja 48 minuuttia sitten, kello 17.15 UTC
Ennuste voimassa 14. päivästä klo 18 UTC - 15. päivään klo 18 UTC
Tuuli 2 kn eri suunnista
Näkyvyys 10 km tai enemmän
ei pilviä alle 1500 m:ssä eikä cumulonimbus-pilviä

TAF: LWOH 141715Z 1418/1518 VRB02KT CAVOK

Säähavainnot ja -ennusteet yli 4000 lentoasemalta (METAR- ja TAF-raportit).

Käytössä olevat sääasemat on merkitty karttaan keltaisilla ja punaisilla pisteillä.

Aseta hiiri pisteen päälle nähdäksesi sääaseman nimen.

Klikkaa sitten nähdäksesi säähavainnot ja -ennusteet.

Kartan vaihtaminen: klikkaa mustalla rastilla varustettuja vihreitä pisteitä, niin voit zoomata sisään; viivalla varustettua vihreää pistettä, niin voit zoomata ulos tai vihreitä nuolia, niin pääset viereisille kartoille.


METAR-TAF: